sensor_id;sensor_type;location;lat;lon;timestamp;temperature;humidity
4433;DHT22;2229;48.708;9.706;2023-08-31T00:00:40;15.50;99.90
4433;DHT22;2229;48.708;9.706;2023-08-31T00:03:08;15.40;99.90
4433;DHT22;2229;48.708;9.706;2023-08-31T00:05:37;15.30;99.90
4433;DHT22;2229;48.708;9.706;2023-08-31T00:08:07;15.30;99.90
4433;DHT22;2229;48.708;9.706;2023-08-31T00:10:35;15.30;99.90
4433;DHT22;2229;48.708;9.706;2023-08-31T00:13:03;15.30;99.90
4433;DHT22;2229;48.708;9.706;2023-08-31T00:15:30;15.20;99.90
4433;DHT22;2229;48.708;9.706;2023-08-31T00:17:58;15.20;99.90
4433;DHT22;2229;48.708;9.706;2023-08-31T00:20:26;15.20;99.90
4433;DHT22;2229;48.708;9.706;2023-08-31T00:22:58;15.10;99.90
4433;DHT22;2229;48.708;9.706;2023-08-31T00:25:27;15.10;99.90
4433;DHT22;2229;48.708;9.706;2023-08-31T00:27:56;15.20;99.90
4433;DHT22;2229;48.708;9.706;2023-08-31T00:30:23;15.10;99.90
4433;DHT22;2229;48.708;9.706;2023-08-31T00:32:55;15.10;99.90
4433;DHT22;2229;48.708;9.706;2023-08-31T00:35:28;15.10;99.90
4433;DHT22;2229;48.708;9.706;2023-08-31T00:37:57;15.10;99.90
4433;DHT22;2229;48.708;9.706;2023-08-31T00:40:24;15.10;99.90
4433;DHT22;2229;48.708;9.706;2023-08-31T00:42:53;15.10;99.90
4433;DHT22;2229;48.708;9.706;2023-08-31T00:45:21;15.10;99.90
4433;DHT22;2229;48.708;9.706;2023-08-31T00:47:49;15.10;99.90
4433;DHT22;2229;48.708;9.706;2023-08-31T00:53:14;15.10;99.90
4433;DHT22;2229;48.708;9.706;2023-08-31T00:55:44;15.10;99.90
4433;DHT22;2229;48.708;9.706;2023-08-31T01:01:02;15.10;99.90
4433;DHT22;2229;48.708;9.706;2023-08-31T01:03:41;15.00;99.90
4433;DHT22;2229;48.708;9.706;2023-08-31T01:06:15;15.00;99.90
4433;DHT22;2229;48.708;9.706;2023-08-31T01:08:50;15.00;99.90
4433;DHT22;2229;48.708;9.706;2023-08-31T01:11:27;15.10;99.90
4433;DHT22;2229;48.708;9.706;2023-08-31T01:14:02;15.00;99.90
4433;DHT22;2229;48.708;9.706;2023-08-31T01:16:35;15.00;99.90
4433;DHT22;2229;48.708;9.706;2023-08-31T01:19:06;15.10;99.90
4433;DHT22;2229;48.708;9.706;2023-08-31T01:21:40;15.10;99.90
4433;DHT22;2229;48.708;9.706;2023-08-31T01:24:11;15.00;99.90
4433;DHT22;2229;48.708;9.706;2023-08-31T01:26:40;15.00;99.90
4433;DHT22;2229;48.708;9.706;2023-08-31T01:29:08;15.00;99.90
4433;DHT22;2229;48.708;9.706;2023-08-31T01:31:41;15.00;99.90
4433;DHT22;2229;48.708;9.706;2023-08-31T01:34:09;15.00;99.90
4433;DHT22;2229;48.708;9.706;2023-08-31T01:36:42;15.00;99.90
4433;DHT22;2229;48.708;9.706;2023-08-31T01:39:16;14.90;99.90
4433;DHT22;2229;48.708;9.706;2023-08-31T01:41:48;14.80;99.90
4433;DHT22;2229;48.708;9.706;2023-08-31T01:44:19;14.80;99.90
4433;DHT22;2229;48.708;9.706;2023-08-31T01:46:50;14.70;99.90
4433;DHT22;2229;48.708;9.706;2023-08-31T01:49:19;14.70;99.90
4433;DHT22;2229;48.708;9.706;2023-08-31T01:51:46;14.60;99.90
4433;DHT22;2229;48.708;9.706;2023-08-31T01:54:15;14.60;99.90
4433;DHT22;2229;48.708;9.706;2023-08-31T01:56:42;14.60;99.90
4433;DHT22;2229;48.708;9.706;2023-08-31T01:59:10;14.60;99.90
4433;DHT22;2229;48.708;9.706;2023-08-31T02:01:37;14.60;99.90
4433;DHT22;2229;48.708;9.706;2023-08-31T02:04:05;14.60;99.90
4433;DHT22;2229;48.708;9.706;2023-08-31T02:06:33;14.60;99.90
4433;DHT22;2229;48.708;9.706;2023-08-31T02:09:01;14.60;99.90
4433;DHT22;2229;48.708;9.706;2023-08-31T02:11:30;14.60;99.90
4433;DHT22;2229;48.708;9.706;2023-08-31T02:13:58;14.60;99.90
4433;DHT22;2229;48.708;9.706;2023-08-31T02:16:25;14.60;99.90
4433;DHT22;2229;48.708;9.706;2023-08-31T02:18:52;14.60;99.90
4433;DHT22;2229;48.708;9.706;2023-08-31T02:21:19;14.60;99.90
4433;DHT22;2229;48.708;9.706;2023-08-31T02:23:47;14.60;99.90
4433;DHT22;2229;48.708;9.706;2023-08-31T02:26:15;14.60;99.90
4433;DHT22;2229;48.708;9.706;2023-08-31T02:28:44;14.60;99.90
4433;DHT22;2229;48.708;9.706;2023-08-31T02:31:11;14.60;99.90
4433;DHT22;2229;48.708;9.706;2023-08-31T02:33:38;14.60;99.90
4433;DHT22;2229;48.708;9.706;2023-08-31T02:36:06;14.60;99.90
4433;DHT22;2229;48.708;9.706;2023-08-31T02:38:34;14.60;99.90
4433;DHT22;2229;48.708;9.706;2023-08-31T02:41:01;14.60;99.90
4433;DHT22;2229;48.708;9.706;2023-08-31T02:43:29;14.60;99.90
4433;DHT22;2229;48.708;9.706;2023-08-31T02:46:01;14.60;99.90
4433;DHT22;2229;48.708;9.706;2023-08-31T02:48:29;14.60;99.90
4433;DHT22;2229;48.708;9.706;2023-08-31T02:51:04;14.60;99.90
4433;DHT22;2229;48.708;9.706;2023-08-31T02:53:31;14.60;99.90
4433;DHT22;2229;48.708;9.706;2023-08-31T02:55:59;14.60;99.90
4433;DHT22;2229;48.708;9.706;2023-08-31T02:58:27;14.60;99.90
4433;DHT22;2229;48.708;9.706;2023-08-31T03:00:54;14.60;99.90
4433;DHT22;2229;48.708;9.706;2023-08-31T03:03:23;14.60;99.90
4433;DHT22;2229;48.708;9.706;2023-08-31T03:05:55;14.60;99.90
4433;DHT22;2229;48.708;9.706;2023-08-31T03:08:24;14.60;99.90
4433;DHT22;2229;48.708;9.706;2023-08-31T03:10:51;14.60;99.90
4433;DHT22;2229;48.708;9.706;2023-08-31T03:13:19;14.60;99.90
4433;DHT22;2229;48.708;9.706;2023-08-31T03:15:46;14.60;99.90
4433;DHT22;2229;48.708;9.706;2023-08-31T03:18:13;14.60;99.90
4433;DHT22;2229;48.708;9.706;2023-08-31T03:20:42;14.60;99.90
4433;DHT22;2229;48.708;9.706;2023-08-31T03:23:10;14.60;99.90
4433;DHT22;2229;48.708;9.706;2023-08-31T03:25:38;14.60;99.90
4433;DHT22;2229;48.708;9.706;2023-08-31T03:28:07;14.60;99.90
4433;DHT22;2229;48.708;9.706;2023-08-31T03:30:36;14.60;99.90
4433;DHT22;2229;48.708;9.706;2023-08-31T03:33:03;14.60;99.90
4433;DHT22;2229;48.708;9.706;2023-08-31T03:35:31;14.60;99.90
4433;DHT22;2229;48.708;9.706;2023-08-31T03:38:01;14.50;99.90
4433;DHT22;2229;48.708;9.706;2023-08-31T03:40:28;14.50;99.90
4433;DHT22;2229;48.708;9.706;2023-08-31T03:42:55;14.50;99.90
4433;DHT22;2229;48.708;9.706;2023-08-31T03:45:23;14.50;99.90
4433;DHT22;2229;48.708;9.706;2023-08-31T03:47:50;14.40;99.90
4433;DHT22;2229;48.708;9.706;2023-08-31T03:50:18;14.40;99.90
4433;DHT22;2229;48.708;9.706;2023-08-31T03:52:46;14.40;99.90
4433;DHT22;2229;48.708;9.706;2023-08-31T03:55:15;14.40;99.90
4433;DHT22;2229;48.708;9.706;2023-08-31T03:57:43;14.40;99.90
4433;DHT22;2229;48.708;9.706;2023-08-31T04:00:15;14.40;99.90
4433;DHT22;2229;48.708;9.706;2023-08-31T04:02:43;14.40;99.90
4433;DHT22;2229;48.708;9.706;2023-08-31T04:05:13;14.40;99.90
4433;DHT22;2229;48.708;9.706;2023-08-31T04:07:43;14.50;99.90
4433;DHT22;2229;48.708;9.706;2023-08-31T04:10:10;14.50;99.90
4433;DHT22;2229;48.708;9.706;2023-08-31T04:12:39;14.50;99.90
4433;DHT22;2229;48.708;9.706;2023-08-31T04:15:07;14.50;99.90
4433;DHT22;2229;48.708;9.706;2023-08-31T04:17:35;14.50;99.90
4433;DHT22;2229;48.708;9.706;2023-08-31T04:20:03;14.50;99.90
4433;DHT22;2229;48.708;9.706;2023-08-31T04:22:31;14.50;99.90
4433;DHT22;2229;48.708;9.706;2023-08-31T04:24:58;14.50;99.90
4433;DHT22;2229;48.708;9.706;2023-08-31T04:27:26;14.50;99.90
4433;DHT22;2229;48.708;9.706;2023-08-31T04:29:59;14.50;99.90
4433;DHT22;2229;48.708;9.706;2023-08-31T04:32:26;14.50;99.90
4433;DHT22;2229;48.708;9.706;2023-08-31T04:34:53;14.50;99.90
4433;DHT22;2229;48.708;9.706;2023-08-31T04:37:21;14.50;99.90
4433;DHT22;2229;48.708;9.706;2023-08-31T04:39:48;14.50;99.90
4433;DHT22;2229;48.708;9.706;2023-08-31T04:42:15;14.60;99.90
4433;DHT22;2229;48.708;9.706;2023-08-31T04:44:44;14.60;99.90
4433;DHT22;2229;48.708;9.706;2023-08-31T04:47:12;14.50;99.90
4433;DHT22;2229;48.708;9.706;2023-08-31T04:49:39;14.50;99.90
4433;DHT22;2229;48.708;9.706;2023-08-31T04:52:06;14.50;99.90
4433;DHT22;2229;48.708;9.706;2023-08-31T04:54:34;14.50;99.90
4433;DHT22;2229;48.708;9.706;2023-08-31T04:57:01;14.50;99.90
4433;DHT22;2229;48.708;9.706;2023-08-31T04:59:29;14.40;99.90
4433;DHT22;2229;48.708;9.706;2023-08-31T05:01:56;14.50;99.90
4433;DHT22;2229;48.708;9.706;2023-08-31T05:04:26;14.50;99.90
4433;DHT22;2229;48.708;9.706;2023-08-31T05:06:54;14.50;99.90
4433;DHT22;2229;48.708;9.706;2023-08-31T05:09:23;14.50;99.90
4433;DHT22;2229;48.708;9.706;2023-08-31T05:11:51;14.50;99.90
4433;DHT22;2229;48.708;9.706;2023-08-31T05:14:18;14.50;99.90
4433;DHT22;2229;48.708;9.706;2023-08-31T05:16:45;14.40;99.90
4433;DHT22;2229;48.708;9.706;2023-08-31T05:19:13;14.40;99.90
4433;DHT22;2229;48.708;9.706;2023-08-31T05:21:41;14.40;99.90
4433;DHT22;2229;48.708;9.706;2023-08-31T05:24:09;14.40;99.90
4433;DHT22;2229;48.708;9.706;2023-08-31T05:26:38;14.50;99.90
4433;DHT22;2229;48.708;9.706;2023-08-31T05:29:05;14.50;99.90
4433;DHT22;2229;48.708;9.706;2023-08-31T05:31:32;14.50;99.90
4433;DHT22;2229;48.708;9.706;2023-08-31T05:33:59;14.50;99.90
4433;DHT22;2229;48.708;9.706;2023-08-31T05:36:27;14.50;99.90
4433;DHT22;2229;48.708;9.706;2023-08-31T05:38:57;14.50;99.90
4433;DHT22;2229;48.708;9.706;2023-08-31T05:41:24;14.60;99.90
4433;DHT22;2229;48.708;9.706;2023-08-31T05:43:51;14.70;99.90
4433;DHT22;2229;48.708;9.706;2023-08-31T05:46:18;14.70;99.90
4433;DHT22;2229;48.708;9.706;2023-08-31T05:48:46;14.80;99.90
4433;DHT22;2229;48.708;9.706;2023-08-31T05:51:13;14.80;99.90
4433;DHT22;2229;48.708;9.706;2023-08-31T05:53:49;14.80;99.90
4433;DHT22;2229;48.708;9.706;2023-08-31T05:56:19;14.90;99.90
4433;DHT22;2229;48.708;9.706;2023-08-31T05:58:46;14.90;99.90
4433;DHT22;2229;48.708;9.706;2023-08-31T06:01:13;14.90;99.90
4433;DHT22;2229;48.708;9.706;2023-08-31T06:03:40;14.90;99.90
4433;DHT22;2229;48.708;9.706;2023-08-31T06:06:08;14.90;99.90
4433;DHT22;2229;48.708;9.706;2023-08-31T06:08:35;14.90;99.90
4433;DHT22;2229;48.708;9.706;2023-08-31T06:11:02;14.90;99.90
4433;DHT22;2229;48.708;9.706;2023-08-31T06:13:31;14.90;99.90
4433;DHT22;2229;48.708;9.706;2023-08-31T06:16:00;14.90;99.90
4433;DHT22;2229;48.708;9.706;2023-08-31T06:18:27;14.90;99.90
4433;DHT22;2229;48.708;9.706;2023-08-31T06:20:54;14.90;99.90
4433;DHT22;2229;48.708;9.706;2023-08-31T06:23:22;15.00;99.90
4433;DHT22;2229;48.708;9.706;2023-08-31T06:25:49;15.10;99.90
4433;DHT22;2229;48.708;9.706;2023-08-31T06:28:17;15.10;99.90
4433;DHT22;2229;48.708;9.706;2023-08-31T06:30:45;15.20;99.90
4433;DHT22;2229;48.708;9.706;2023-08-31T06:33:13;15.30;99.90
4433;DHT22;2229;48.708;9.706;2023-08-31T06:35:41;15.40;99.90
4433;DHT22;2229;48.708;9.706;2023-08-31T06:38:08;15.40;99.90
4433;DHT22;2229;48.708;9.706;2023-08-31T06:40:36;15.40;99.90
4433;DHT22;2229;48.708;9.706;2023-08-31T06:43:04;15.40;99.90
4433;DHT22;2229;48.708;9.706;2023-08-31T06:45:31;15.40;99.90
4433;DHT22;2229;48.708;9.706;2023-08-31T06:48:01;15.40;99.90
4433;DHT22;2229;48.708;9.706;2023-08-31T06:50:30;15.40;99.90
4433;DHT22;2229;48.708;9.706;2023-08-31T06:52:57;15.50;99.90
4433;DHT22;2229;48.708;9.706;2023-08-31T06:55:25;15.50;99.90
4433;DHT22;2229;48.708;9.706;2023-08-31T06:57:52;15.50;99.90
4433;DHT22;2229;48.708;9.706;2023-08-31T07:00:20;15.50;99.90
4433;DHT22;2229;48.708;9.706;2023-08-31T07:02:47;15.60;99.90
4433;DHT22;2229;48.708;9.706;2023-08-31T07:05:15;15.70;99.90
4433;DHT22;2229;48.708;9.706;2023-08-31T07:07:42;15.70;99.90
4433;DHT22;2229;48.708;9.706;2023-08-31T07:10:10;15.80;99.90
4433;DHT22;2229;48.708;9.706;2023-08-31T07:12:38;15.90;99.90
4433;DHT22;2229;48.708;9.706;2023-08-31T07:15:06;16.00;99.90
4433;DHT22;2229;48.708;9.706;2023-08-31T07:17:33;16.00;99.90
4433;DHT22;2229;48.708;9.706;2023-08-31T07:20:00;16.10;99.90
4433;DHT22;2229;48.708;9.706;2023-08-31T07:22:29;16.20;99.90
4433;DHT22;2229;48.708;9.706;2023-08-31T07:24:56;16.20;99.90
4433;DHT22;2229;48.708;9.706;2023-08-31T07:27:24;16.30;99.90
4433;DHT22;2229;48.708;9.706;2023-08-31T07:29:53;16.40;99.90
4433;DHT22;2229;48.708;9.706;2023-08-31T07:32:21;16.50;99.90
4433;DHT22;2229;48.708;9.706;2023-08-31T07:34:48;16.60;99.90
4433;DHT22;2229;48.708;9.706;2023-08-31T07:37:15;16.70;99.90
4433;DHT22;2229;48.708;9.706;2023-08-31T07:39:44;16.80;99.90
4433;DHT22;2229;48.708;9.706;2023-08-31T07:42:12;17.00;99.90
4433;DHT22;2229;48.708;9.706;2023-08-31T07:44:39;17.10;99.90
4433;DHT22;2229;48.708;9.706;2023-08-31T07:47:07;17.40;99.90
4433;DHT22;2229;48.708;9.706;2023-08-31T07:49:34;17.50;99.90
4433;DHT22;2229;48.708;9.706;2023-08-31T07:52:02;17.60;99.90
4433;DHT22;2229;48.708;9.706;2023-08-31T07:54:30;17.80;99.90
4433;DHT22;2229;48.708;9.706;2023-08-31T07:56:59;17.70;99.90
4433;DHT22;2229;48.708;9.706;2023-08-31T07:59:26;17.70;99.90
4433;DHT22;2229;48.708;9.706;2023-08-31T08:01:54;17.70;99.90
4433;DHT22;2229;48.708;9.706;2023-08-31T08:04:22;17.60;99.90
4433;DHT22;2229;48.708;9.706;2023-08-31T08:06:50;17.60;99.90
4433;DHT22;2229;48.708;9.706;2023-08-31T08:09:18;17.60;99.90
4433;DHT22;2229;48.708;9.706;2023-08-31T08:11:45;17.60;99.90
4433;DHT22;2229;48.708;9.706;2023-08-31T08:14:14;17.60;99.90
4433;DHT22;2229;48.708;9.706;2023-08-31T08:16:42;17.60;99.90
4433;DHT22;2229;48.708;9.706;2023-08-31T08:19:09;17.80;99.90
4433;DHT22;2229;48.708;9.706;2023-08-31T08:21:37;17.90;99.90
4433;DHT22;2229;48.708;9.706;2023-08-31T08:24:04;18.10;99.90
4433;DHT22;2229;48.708;9.706;2023-08-31T08:26:32;18.10;99.90
4433;DHT22;2229;48.708;9.706;2023-08-31T08:28:59;18.20;99.90
4433;DHT22;2229;48.708;9.706;2023-08-31T08:31:27;18.20;99.90
4433;DHT22;2229;48.708;9.706;2023-08-31T08:33:55;18.30;99.90
4433;DHT22;2229;48.708;9.706;2023-08-31T08:36:22;18.40;99.90
4433;DHT22;2229;48.708;9.706;2023-08-31T08:38:49;18.60;99.90
4433;DHT22;2229;48.708;9.706;2023-08-31T08:41:18;18.80;99.90
4433;DHT22;2229;48.708;9.706;2023-08-31T08:43:51;18.90;99.90
4433;DHT22;2229;48.708;9.706;2023-08-31T08:46:19;19.00;99.90
4433;DHT22;2229;48.708;9.706;2023-08-31T08:48:49;19.20;99.90
4433;DHT22;2229;48.708;9.706;2023-08-31T08:51:16;19.30;99.90
4433;DHT22;2229;48.708;9.706;2023-08-31T08:53:44;19.30;99.90
4433;DHT22;2229;48.708;9.706;2023-08-31T08:56:12;19.40;99.50
4433;DHT22;2229;48.708;9.706;2023-08-31T08:58:39;19.40;98.60
4433;DHT22;2229;48.708;9.706;2023-08-31T09:01:07;19.50;97.70
4433;DHT22;2229;48.708;9.706;2023-08-31T09:03:35;19.50;97.60
4433;DHT22;2229;48.708;9.706;2023-08-31T09:06:04;19.50;96.60
4433;DHT22;2229;48.708;9.706;2023-08-31T09:08:34;19.50;95.90
4433;DHT22;2229;48.708;9.706;2023-08-31T09:11:03;19.50;95.40
4433;DHT22;2229;48.708;9.706;2023-08-31T09:13:31;19.50;95.00
4433;DHT22;2229;48.708;9.706;2023-08-31T09:16:00;19.50;94.20
4433;DHT22;2229;48.708;9.706;2023-08-31T09:18:28;19.50;94.00
4433;DHT22;2229;48.708;9.706;2023-08-31T09:20:56;19.50;93.40
4433;DHT22;2229;48.708;9.706;2023-08-31T09:23:26;19.40;92.80
4433;DHT22;2229;48.708;9.706;2023-08-31T09:25:55;19.30;92.00
4433;DHT22;2229;48.708;9.706;2023-08-31T09:28:24;19.10;91.30
4433;DHT22;2229;48.708;9.706;2023-08-31T09:30:53;19.00;91.10
4433;DHT22;2229;48.708;9.706;2023-08-31T09:33:21;18.80;90.40
4433;DHT22;2229;48.708;9.706;2023-08-31T09:35:51;18.70;90.20
4433;DHT22;2229;48.708;9.706;2023-08-31T09:38:18;18.60;90.20
4433;DHT22;2229;48.708;9.706;2023-08-31T09:40:47;18.60;90.40
4433;DHT22;2229;48.708;9.706;2023-08-31T09:43:19;18.70;91.10
4433;DHT22;2229;48.708;9.706;2023-08-31T09:45:47;18.90;91.50
4433;DHT22;2229;48.708;9.706;2023-08-31T09:48:18;19.00;91.10
4433;DHT22;2229;48.708;9.706;2023-08-31T09:50:46;19.00;90.50
4433;DHT22;2229;48.708;9.706;2023-08-31T09:53:16;18.90;90.30
4433;DHT22;2229;48.708;9.706;2023-08-31T09:55:44;18.80;90.00
4433;DHT22;2229;48.708;9.706;2023-08-31T09:58:16;18.70;90.10
4433;DHT22;2229;48.708;9.706;2023-08-31T10:00:44;18.60;90.10
4433;DHT22;2229;48.708;9.706;2023-08-31T10:03:12;18.60;90.60
4433;DHT22;2229;48.708;9.706;2023-08-31T10:05:43;18.60;90.30
4433;DHT22;2229;48.708;9.706;2023-08-31T10:08:11;18.70;90.10
4433;DHT22;2229;48.708;9.706;2023-08-31T10:10:40;18.80;90.20
4433;DHT22;2229;48.708;9.706;2023-08-31T10:13:07;18.80;90.00
4433;DHT22;2229;48.708;9.706;2023-08-31T10:15:36;18.80;90.20
4433;DHT22;2229;48.708;9.706;2023-08-31T10:18:05;18.90;90.10
4433;DHT22;2229;48.708;9.706;2023-08-31T10:20:34;19.00;89.50
4433;DHT22;2229;48.708;9.706;2023-08-31T10:23:03;19.20;89.50
4433;DHT22;2229;48.708;9.706;2023-08-31T10:26:03;19.20;87.80
4433;DHT22;2229;48.708;9.706;2023-08-31T10:28:39;19.20;86.80
4433;DHT22;2229;48.708;9.706;2023-08-31T10:31:09;19.50;87.40
4433;DHT22;2229;48.708;9.706;2023-08-31T10:33:41;19.80;87.50
4433;DHT22;2229;48.708;9.706;2023-08-31T10:36:13;20.10;86.50
4433;DHT22;2229;48.708;9.706;2023-08-31T10:38:42;20.30;84.70
4433;DHT22;2229;48.708;9.706;2023-08-31T10:41:19;20.40;84.00
4433;DHT22;2229;48.708;9.706;2023-08-31T10:43:48;20.60;82.40
4433;DHT22;2229;48.708;9.706;2023-08-31T10:46:30;20.70;81.60
4433;DHT22;2229;48.708;9.706;2023-08-31T10:48:58;20.80;82.20
4433;DHT22;2229;48.708;9.706;2023-08-31T10:51:28;20.80;81.80
4433;DHT22;2229;48.708;9.706;2023-08-31T10:54:06;20.80;81.50
4433;DHT22;2229;48.708;9.706;2023-08-31T10:56:55;20.70;80.50
4433;DHT22;2229;48.708;9.706;2023-08-31T10:59:24;20.60;79.90
4433;DHT22;2229;48.708;9.706;2023-08-31T11:01:54;20.60;79.60
4433;DHT22;2229;48.708;9.706;2023-08-31T11:04:22;20.60;78.50
4433;DHT22;2229;48.708;9.706;2023-08-31T11:07:15;20.60;79.10
4433;DHT22;2229;48.708;9.706;2023-08-31T11:09:44;20.50;79.60
4433;DHT22;2229;48.708;9.706;2023-08-31T11:12:12;20.60;80.20
4433;DHT22;2229;48.708;9.706;2023-08-31T11:14:41;20.60;79.50
4433;DHT22;2229;48.708;9.706;2023-08-31T11:17:10;20.60;79.10
4433;DHT22;2229;48.708;9.706;2023-08-31T11:19:37;20.60;78.10
4433;DHT22;2229;48.708;9.706;2023-08-31T11:22:06;20.70;79.20
4433;DHT22;2229;48.708;9.706;2023-08-31T11:24:35;20.70;78.00
4433;DHT22;2229;48.708;9.706;2023-08-31T11:27:07;20.60;77.80
4433;DHT22;2229;48.708;9.706;2023-08-31T11:29:43;20.60;78.10
4433;DHT22;2229;48.708;9.706;2023-08-31T11:32:11;20.70;78.10
4433;DHT22;2229;48.708;9.706;2023-08-31T11:34:40;20.80;78.50
4433;DHT22;2229;48.708;9.706;2023-08-31T11:37:08;20.80;78.50
4433;DHT22;2229;48.708;9.706;2023-08-31T11:39:36;20.70;76.80
4433;DHT22;2229;48.708;9.706;2023-08-31T11:42:04;20.60;76.00
4433;DHT22;2229;48.708;9.706;2023-08-31T11:44:34;20.40;75.30
4433;DHT22;2229;48.708;9.706;2023-08-31T11:47:02;20.30;75.70
4433;DHT22;2229;48.708;9.706;2023-08-31T11:49:31;20.30;76.20
4433;DHT22;2229;48.708;9.706;2023-08-31T11:51:58;20.30;76.20
4433;DHT22;2229;48.708;9.706;2023-08-31T11:54:26;20.50;76.50
4433;DHT22;2229;48.708;9.706;2023-08-31T11:56:53;20.60;77.00
4433;DHT22;2229;48.708;9.706;2023-08-31T11:59:20;20.80;78.20
4433;DHT22;2229;48.708;9.706;2023-08-31T12:01:50;20.80;76.20
4433;DHT22;2229;48.708;9.706;2023-08-31T12:04:21;20.80;75.70
4433;DHT22;2229;48.708;9.706;2023-08-31T12:06:51;20.80;75.20
4433;DHT22;2229;48.708;9.706;2023-08-31T12:09:20;20.80;75.00
4433;DHT22;2229;48.708;9.706;2023-08-31T12:11:50;20.80;74.10
4433;DHT22;2229;48.708;9.706;2023-08-31T12:14:19;20.90;73.30
4433;DHT22;2229;48.708;9.706;2023-08-31T12:16:47;20.90;73.20
4433;DHT22;2229;48.708;9.706;2023-08-31T12:19:15;20.80;72.90
4433;DHT22;2229;48.708;9.706;2023-08-31T12:21:44;20.70;73.00
4433;DHT22;2229;48.708;9.706;2023-08-31T12:24:13;20.70;73.20
4433;DHT22;2229;48.708;9.706;2023-08-31T12:26:43;20.60;72.60
4433;DHT22;2229;48.708;9.706;2023-08-31T12:29:11;20.60;73.20
4433;DHT22;2229;48.708;9.706;2023-08-31T12:31:38;20.50;73.30
4433;DHT22;2229;48.708;9.706;2023-08-31T12:34:06;20.60;72.50
4433;DHT22;2229;48.708;9.706;2023-08-31T12:36:33;20.60;72.60
4433;DHT22;2229;48.708;9.706;2023-08-31T12:39:03;20.60;72.70
4433;DHT22;2229;48.708;9.706;2023-08-31T12:41:34;20.60;72.80
4433;DHT22;2229;48.708;9.706;2023-08-31T12:44:02;20.70;72.40
4433;DHT22;2229;48.708;9.706;2023-08-31T12:46:30;20.70;72.40
4433;DHT22;2229;48.708;9.706;2023-08-31T12:48:58;20.70;73.00
4433;DHT22;2229;48.708;9.706;2023-08-31T12:51:26;20.80;72.90
4433;DHT22;2229;48.708;9.706;2023-08-31T12:53:53;20.90;73.00
4433;DHT22;2229;48.708;9.706;2023-08-31T12:56:20;21.00;72.20
4433;DHT22;2229;48.708;9.706;2023-08-31T12:58:52;21.10;71.80
4433;DHT22;2229;48.708;9.706;2023-08-31T13:01:20;21.20;73.10
4433;DHT22;2229;48.708;9.706;2023-08-31T13:03:48;21.30;72.60
4433;DHT22;2229;48.708;9.706;2023-08-31T13:06:16;21.30;72.70
4433;DHT22;2229;48.708;9.706;2023-08-31T13:08:44;21.40;72.20
4433;DHT22;2229;48.708;9.706;2023-08-31T13:11:12;21.50;71.90
4433;DHT22;2229;48.708;9.706;2023-08-31T13:13:40;21.60;70.90
4433;DHT22;2229;48.708;9.706;2023-08-31T13:16:09;21.70;71.20
4433;DHT22;2229;48.708;9.706;2023-08-31T13:18:36;21.80;71.20
4433;DHT22;2229;48.708;9.706;2023-08-31T13:21:03;21.80;71.40
4433;DHT22;2229;48.708;9.706;2023-08-31T13:23:30;21.80;71.50
4433;DHT22;2229;48.708;9.706;2023-08-31T13:25:58;21.70;69.90
4433;DHT22;2229;48.708;9.706;2023-08-31T13:28:25;21.60;68.90
4433;DHT22;2229;48.708;9.706;2023-08-31T13:30:55;21.50;67.70
4433;DHT22;2229;48.708;9.706;2023-08-31T13:33:24;21.40;68.30
4433;DHT22;2229;48.708;9.706;2023-08-31T13:35:52;21.30;68.90
4433;DHT22;2229;48.708;9.706;2023-08-31T13:38:19;21.40;68.90
4433;DHT22;2229;48.708;9.706;2023-08-31T13:40:46;21.40;68.50
4433;DHT22;2229;48.708;9.706;2023-08-31T13:43:13;21.40;69.20
4433;DHT22;2229;48.708;9.706;2023-08-31T13:45:40;21.40;69.80
4433;DHT22;2229;48.708;9.706;2023-08-31T13:48:08;21.40;69.60
4433;DHT22;2229;48.708;9.706;2023-08-31T13:50:37;21.30;69.50
4433;DHT22;2229;48.708;9.706;2023-08-31T13:53:04;21.50;69.10
4433;DHT22;2229;48.708;9.706;2023-08-31T13:55:31;21.50;69.00
4433;DHT22;2229;48.708;9.706;2023-08-31T13:58:04;21.50;69.30
4433;DHT22;2229;48.708;9.706;2023-08-31T14:00:31;21.50;70.00
4433;DHT22;2229;48.708;9.706;2023-08-31T14:02:59;21.40;69.90
4433;DHT22;2229;48.708;9.706;2023-08-31T14:05:28;21.40;69.70
4433;DHT22;2229;48.708;9.706;2023-08-31T14:07:57;21.40;70.00
4433;DHT22;2229;48.708;9.706;2023-08-31T14:10:27;21.30;69.80
4433;DHT22;2229;48.708;9.706;2023-08-31T14:12:54;21.20;69.90
4433;DHT22;2229;48.708;9.706;2023-08-31T14:15:22;21.10;70.00
4433;DHT22;2229;48.708;9.706;2023-08-31T14:17:50;21.00;70.50
4433;DHT22;2229;48.708;9.706;2023-08-31T14:20:18;20.90;71.30
4433;DHT22;2229;48.708;9.706;2023-08-31T14:22:46;20.90;72.00
4433;DHT22;2229;48.708;9.706;2023-08-31T14:25:14;20.90;72.40
4433;DHT22;2229;48.708;9.706;2023-08-31T14:27:42;21.00;72.40
4433;DHT22;2229;48.708;9.706;2023-08-31T14:30:10;21.10;72.70
4433;DHT22;2229;48.708;9.706;2023-08-31T14:32:38;21.20;73.10
4433;DHT22;2229;48.708;9.706;2023-08-31T14:35:06;21.30;72.60
4433;DHT22;2229;48.708;9.706;2023-08-31T14:37:33;21.30;72.80
4433;DHT22;2229;48.708;9.706;2023-08-31T14:40:01;21.40;73.40
4433;DHT22;2229;48.708;9.706;2023-08-31T14:42:30;21.40;73.20
4433;DHT22;2229;48.708;9.706;2023-08-31T14:44:57;21.50;73.30
4433;DHT22;2229;48.708;9.706;2023-08-31T14:47:25;21.50;72.70
4433;DHT22;2229;48.708;9.706;2023-08-31T14:49:52;21.60;72.60
4433;DHT22;2229;48.708;9.706;2023-08-31T14:52:19;21.60;72.70
4433;DHT22;2229;48.708;9.706;2023-08-31T14:54:46;21.60;73.20
4433;DHT22;2229;48.708;9.706;2023-08-31T14:57:14;21.50;73.60
4433;DHT22;2229;48.708;9.706;2023-08-31T14:59:42;21.50;73.90
4433;DHT22;2229;48.708;9.706;2023-08-31T15:02:10;21.40;74.10
4433;DHT22;2229;48.708;9.706;2023-08-31T15:04:37;21.30;74.20
4433;DHT22;2229;48.708;9.706;2023-08-31T15:07:04;21.20;74.90
4433;DHT22;2229;48.708;9.706;2023-08-31T15:09:31;21.20;74.90
4433;DHT22;2229;48.708;9.706;2023-08-31T15:11:59;21.10;75.30
4433;DHT22;2229;48.708;9.706;2023-08-31T15:14:26;21.00;75.40
4433;DHT22;2229;48.708;9.706;2023-08-31T15:16:54;21.00;76.30
4433;DHT22;2229;48.708;9.706;2023-08-31T15:19:22;20.90;75.40
4433;DHT22;2229;48.708;9.706;2023-08-31T15:21:49;20.90;76.20
4433;DHT22;2229;48.708;9.706;2023-08-31T15:24:16;20.90;76.60
4433;DHT22;2229;48.708;9.706;2023-08-31T15:26:43;20.90;76.90
4433;DHT22;2229;48.708;9.706;2023-08-31T15:29:11;20.90;77.10
4433;DHT22;2229;48.708;9.706;2023-08-31T15:31:38;20.90;77.30
4433;DHT22;2229;48.708;9.706;2023-08-31T15:34:11;20.80;77.50
4433;DHT22;2229;48.708;9.706;2023-08-31T15:36:38;20.80;77.60
4433;DHT22;2229;48.708;9.706;2023-08-31T15:39:07;20.80;77.60
4433;DHT22;2229;48.708;9.706;2023-08-31T15:41:34;20.70;77.60
4433;DHT22;2229;48.708;9.706;2023-08-31T15:44:02;20.70;78.00
4433;DHT22;2229;48.708;9.706;2023-08-31T15:46:30;20.60;78.40
4433;DHT22;2229;48.708;9.706;2023-08-31T15:48:57;20.60;78.90
4433;DHT22;2229;48.708;9.706;2023-08-31T15:51:26;20.50;79.20
4433;DHT22;2229;48.708;9.706;2023-08-31T15:53:54;20.50;79.20
4433;DHT22;2229;48.708;9.706;2023-08-31T15:56:22;20.50;79.00
4433;DHT22;2229;48.708;9.706;2023-08-31T15:58:49;20.50;79.30
4433;DHT22;2229;48.708;9.706;2023-08-31T16:01:17;20.50;79.60
4433;DHT22;2229;48.708;9.706;2023-08-31T16:03:44;20.50;79.70
4433;DHT22;2229;48.708;9.706;2023-08-31T16:06:11;20.50;80.10
4433;DHT22;2229;48.708;9.706;2023-08-31T16:08:41;20.40;79.80
4433;DHT22;2229;48.708;9.706;2023-08-31T16:11:08;20.40;80.10
4433;DHT22;2229;48.708;9.706;2023-08-31T16:13:35;20.30;80.70
4433;DHT22;2229;48.708;9.706;2023-08-31T16:16:06;20.30;81.60